Terminal Aerodrome Forecast
Issued by NWS Boise, ID

Home | Current Version | Previous Version | Text Only | Print | Product List | Glossary On
Versions: 1 2 3 4 5 6 7 8 9 10 11 12
000
FTUS45 KBOI 261749
TAFBNO
TAF
KBNO 261749Z 2618/2718 VRB04KT P6SM BKN070 OVC090
     FM262000 20010KT P6SM -SN SCT020 BKN035
     FM270500 24006KT P6SM BKN035=

USA.gov is the U.S. government's official web portal to all federal, state and local government web resources and services.